Time;durP1;ratioP1;P1;durP2;ratioP2;P2;SDS_P1;SDS_P2;PMS_P1;PMS_P2;Temp;Humidity;BMP_temperature;BMP_pressure;BME280_temperature;BME280_humidity;BME280_pressure;Samples;Min_cycle;Max_cycle;Signal;HPM_P1;HPM_P2
2023/04/29 00:03:16;;;;;;;7.50;6.37;;;;;;;16.21;66.95;98406.81;6950005;28;20769;-87
2023/04/29 00:06:37;;;;;;;6.70;6.10;;;;;;;16.47;66.31;98408.84;6951539;28;20247;-87
2023/04/29 00:09:59;;;;;;;7.77;5.80;;;;;;;16.26;66.86;98383.22;6952023;28;20290;-85
2023/04/29 00:13:21;;;;;;;6.40;5.80;;;;;;;16.45;65.81;98400.91;6951521;28;20226;-85
2023/04/29 00:16:44;;;;;;;6.07;5.40;;;;;;;16.21;66.03;98385.84;6952059;28;20319;-84
2023/04/29 00:20:07;;;;;;;9.73;5.53;;;;;;;16.37;65.94;98360.50;6951555;28;20291;-87
2023/04/29 00:23:28;;;;;;;6.37;5.30;;;;;;;16.72;65.16;98393.66;6950119;28;20206;-87
2023/04/29 00:26:50;;;;;;;12.30;5.37;;;;;;;16.48;65.36;98375.94;6955107;28;20293;-87
2023/04/29 00:30:12;;;;;;;5.83;5.20;;;;;;;16.46;65.72;98388.94;6950975;28;20271;-87
2023/04/29 00:33:34;;;;;;;6.63;5.37;;;;;;;16.21;67.15;98401.38;6950482;28;20232;-87
2023/04/29 00:36:56;;;;;;;6.00;5.40;;;;;;;15.73;67.89;98395.72;6951234;28;20205;-87
2023/04/29 00:40:18;;;;;;;6.20;5.60;;;;;;;15.98;67.66;98377.09;6951186;28;20292;-87
2023/04/29 00:43:39;;;;;;;4.97;4.50;;;;;;;16.48;67.32;98396.88;6950160;28;20273;-87
2023/04/29 00:47:01;;;;;;;8.10;5.20;;;;;;;16.35;65.25;98399.94;6950678;28;20215;-87
2023/04/29 00:50:24;;;;;;;5.77;4.67;;;;;;;15.68;65.37;98382.88;6950868;28;20210;-87
2023/04/29 00:53:46;;;;;;;5.57;5.10;;;;;;;15.65;66.22;98393.44;6950189;28;20227;-87
2023/04/29 00:57:07;;;;;;;7.73;5.63;;;;;;;16.02;65.81;98410.84;6950479;28;20269;-87
2023/04/29 01:00:29;;;;;;;6.30;5.67;;;;;;;15.61;65.73;98382.22;6947970;28;20610;-87
2023/04/29 01:03:51;;;;;;;6.60;5.63;;;;;;;15.98;63.88;98315.38;6949646;28;20283;-87
2023/04/29 01:07:17;;;;;;;7.50;5.87;;;;;;;15.09;66.68;98331.88;6950757;28;20282;-87
2023/04/29 01:10:42;;;;;;;4.83;4.37;;;;;;;15.53;65.61;98273.13;6950424;28;20246;-87
2023/04/29 01:14:04;;;;;;;7.30;5.50;;;;;;;16.00;65.67;98422.00;6949615;28;20312;-87
2023/04/29 01:17:27;;;;;;;6.37;5.00;;;;;;;16.41;64.73;98407.94;6950137;28;20243;-87
2023/04/29 01:20:49;;;;;;;6.23;4.73;;;;;;;16.13;65.67;98431.69;6950049;28;20205;-87
2023/04/29 01:24:12;;;;;;;6.93;4.80;;;;;;;16.30;64.81;98411.56;6949633;28;20234;-87
2023/04/29 01:27:37;;;;;;;5.20;4.70;;;;;;;16.26;64.18;98424.03;6970508;28;20207;-88
2023/04/29 01:31:03;;;;;;;6.50;4.97;;;;;;;16.21;62.91;98410.34;6976979;28;20231;-87
2023/04/29 01:34:31;;;;;;;7.53;4.73;;;;;;;15.84;63.73;98422.84;6969689;28;20336;-87
2023/04/29 01:37:56;;;;;;;8.23;5.40;;;;;;;15.41;64.53;98441.66;6977129;28;20282;-87
2023/04/29 01:41:23;;;;;;;5.57;4.67;;;;;;;15.87;64.77;98430.47;6976671;28;20577;-87
2023/04/29 01:44:47;;;;;;;8.53;5.70;;;;;;;15.71;64.14;98422.34;6975319;28;20231;-87
2023/04/29 01:48:09;;;;;;;7.77;5.00;;;;;;;15.99;63.69;98423.06;6976140;28;20184;-87
2023/04/29 01:51:32;;;;;;;9.00;5.20;;;;;;;15.59;64.12;98436.00;6976126;28;20727;-87
2023/04/29 01:54:54;;;;;;;7.03;4.90;;;;;;;15.81;64.15;98417.88;6976091;28;20246;-87
2023/04/29 01:58:17;;;;;;;7.60;4.80;;;;;;;15.97;63.51;98427.94;6976258;28;20267;-87
2023/04/29 02:01:38;;;;;;;8.47;5.60;;;;;;;14.95;64.17;98311.53;6983247;28;20280;-87
2023/04/29 02:05:00;;;;;;;4.97;4.47;;;;;;;16.02;63.38;98413.59;6990579;28;20380;-88
2023/04/29 02:08:21;;;;;;;5.70;4.80;;;;;;;16.17;63.44;98422.78;6977814;28;20271;-87
2023/04/29 02:11:43;;;;;;;5.70;5.13;;;;;;;16.05;63.29;98415.81;6975770;28;20263;-87
2023/04/29 02:15:07;;;;;;;9.97;4.50;;;;;;;16.00;62.89;98427.44;6975825;28;20295;-87
2023/04/29 02:18:29;;;;;;;6.67;4.63;;;;;;;15.57;64.22;98415.59;6975776;28;20210;-86
2023/04/29 02:21:50;;;;;;;6.87;4.40;;;;;;;15.66;64.02;98428.53;6975184;28;20648;-87
2023/04/29 02:25:12;;;;;;;4.87;4.47;;;;;;;15.52;64.16;98437.22;6975367;28;20304;-87
2023/04/29 02:28:34;;;;;;;7.00;4.90;;;;;;;15.67;63.68;98438.31;6975919;28;20287;-87
2023/04/29 02:31:57;;;;;;;4.93;4.50;;;;;;;15.36;63.81;98373.66;7002879;28;21049;-88
2023/04/29 02:35:18;;;;;;;7.00;5.17;;;;;;;15.63;63.74;98428.19;6971780;28;20255;-87
2023/04/29 02:38:40;;;;;;;5.90;4.77;;;;;;;15.50;63.61;98428.47;6973905;28;20199;-87
2023/04/29 02:42:01;;;;;;;7.47;4.40;;;;;;;15.43;64.05;98431.38;6975221;28;20248;-88
2023/04/29 02:45:40;;;;;;;4.60;4.20;;;;;;;15.46;63.88;98424.63;6974277;28;20236;-87
2023/04/29 02:49:03;;;;;;;4.83;4.43;;;;;;;15.44;64.05;98433.00;6974651;28;20199;-87
2023/04/29 02:52:25;;;;;;;5.00;4.50;;;;;;;15.17;64.11;98431.13;6974084;28;20238;-87
2023/04/29 02:55:47;;;;;;;7.03;4.57;;;;;;;15.26;64.58;98429.66;7002247;28;20325;-87
2023/04/29 02:59:08;;;;;;;5.20;4.50;;;;;;;15.45;64.08;98428.41;7002856;28;20542;-87
2023/04/29 03:02:30;;;;;;;6.13;4.57;;;;;;;14.96;64.62;98415.50;7002073;28;20198;-87
2023/04/29 03:05:54;;;;;;;6.27;4.67;;;;;;;15.25;64.34;98434.28;7001663;28;20230;-87
2023/04/29 03:09:15;;;;;;;11.13;5.13;;;;;;;15.20;63.74;98446.91;7002571;28;20200;-88
2023/04/29 03:12:38;;;;;;;4.97;4.57;;;;;;;15.07;64.27;98444.50;7001393;28;20369;-88
2023/04/29 03:16:02;;;;;;;5.90;5.30;;;;;;;15.27;63.93;98436.75;7000983;28;20226;-88
2023/04/29 03:19:24;;;;;;;8.40;5.90;;;;;;;15.39;63.00;98421.25;7002180;28;20180;-87
2023/04/29 03:22:47;;;;;;;5.53;4.60;;;;;;;15.24;63.10;98432.63;7000668;28;20315;-87
2023/04/29 03:26:09;;;;;;;5.10;4.50;;;;;;;14.55;63.94;98381.31;7002105;28;20235;-87
2023/04/29 03:29:30;;;;;;;4.93;4.43;;;;;;;15.07;63.77;98439.91;7001532;28;20212;-87
2023/04/29 03:32:52;;;;;;;5.53;4.23;;;;;;;15.25;63.42;98436.16;7001036;28;20308;-87
2023/04/29 03:36:16;;;;;;;4.67;4.20;;;;;;;14.59;63.37;98333.66;6989802;28;20372;-87
2023/04/29 03:39:38;;;;;;;5.27;4.77;;;;;;;14.52;65.10;98435.25;6973199;28;20194;-87
2023/04/29 03:43:00;;;;;;;4.97;4.47;;;;;;;14.75;64.52;98427.03;6973655;28;20288;-87
2023/04/29 03:46:22;;;;;;;8.10;5.30;;;;;;;14.64;63.97;98434.13;6974062;28;20237;-87
2023/04/29 03:49:43;;;;;;;6.90;4.67;;;;;;;14.64;63.76;98436.03;6975797;28;20206;-87
2023/04/29 03:53:05;;;;;;;7.13;5.33;;;;;;;14.42;63.69;98403.31;6974995;28;20317;-87
2023/04/29 03:56:28;;;;;;;6.93;5.67;;;;;;;14.19;63.91;98427.72;6975741;28;20321;-87
2023/04/29 03:59:49;;;;;;;5.30;4.80;;;;;;;13.95;64.24;98342.03;6976201;28;20256;-87
2023/04/29 04:03:11;;;;;;;5.23;4.70;;;;;;;14.60;64.06;98441.13;6978715;28;20213;-87
2023/04/29 04:06:32;;;;;;;8.37;4.97;;;;;;;14.46;63.65;98447.03;6974987;28;20664;-88
2023/04/29 04:09:54;;;;;;;5.67;5.17;;;;;;;14.06;64.97;98440.66;6974498;28;20294;-87
2023/04/29 04:13:17;;;;;;;7.23;5.80;;;;;;;13.92;64.54;98369.59;6974780;28;20313;-88
2023/04/29 04:16:38;;;;;;;6.50;5.70;;;;;;;14.20;64.12;98442.94;6975261;28;20234;-88
2023/04/29 04:20:00;;;;;;;16.93;6.40;;;;;;;13.88;64.05;98414.53;6975480;28;20345;-88
2023/04/29 04:23:21;;;;;;;6.67;5.57;;;;;;;14.31;64.18;98452.13;6974701;28;20683;-88
2023/04/29 04:26:43;;;;;;;5.90;5.30;;;;;;;13.79;65.02;98464.69;6973499;28;20232;-88
2023/04/29 04:30:07;;;;;;;6.00;5.13;;;;;;;14.50;62.83;98453.63;6974579;28;20295;-88
2023/04/29 04:33:29;;;;;;;5.93;5.27;;;;;;;14.16;63.76;98443.63;6980076;28;20260;-87
2023/04/29 04:36:51;;;;;;;5.67;5.00;;;;;;;14.37;63.20;98464.72;6990479;28;20678;-88
2023/04/29 04:40:13;;;;;;;5.97;5.40;;;;;;;13.93;64.00;98425.44;6979766;28;20209;-88
2023/04/29 04:43:35;;;;;;;7.03;4.93;;;;;;;13.58;64.53;98366.91;6979491;28;20206;-88
2023/04/29 04:46:59;;;;;;;8.40;6.20;;;;;;;14.22;63.96;98461.69;6979795;28;20288;-88
2023/04/29 04:50:21;;;;;;;5.50;5.00;;;;;;;14.27;63.96;98480.78;6979856;28;20245;-88
2023/04/29 04:53:43;;;;;;;5.63;5.13;;;;;;;14.49;63.79;98484.53;6978941;28;20218;-88
2023/04/29 04:57:05;;;;;;;5.17;4.50;;;;;;;14.88;63.39;98494.63;6979397;28;20218;-88
2023/04/29 05:00:26;;;;;;;5.57;5.00;;;;;;;14.74;63.52;98485.91;6981280;28;20208;-89
2023/04/29 05:03:49;;;;;;;5.10;4.60;;;;;;;14.41;63.56;98445.06;7000143;28;20350;-89
2023/04/29 05:07:11;;;;;;;5.13;4.63;;;;;;;14.81;63.26;98502.06;7000993;28;20229;-89
2023/04/29 05:10:36;;;;;;;4.57;4.07;;;;;;;14.12;63.79;98418.03;6991266;28;20206;-88
2023/04/29 05:13:57;;;;;;;5.33;4.23;;;;;;;14.86;63.01;98489.41;6978908;28;20237;-89
2023/04/29 05:17:27;;;;;;;6.73;4.50;;;;;;;14.59;64.84;98518.16;6978263;28;20204;-88
2023/04/29 05:20:50;;;;;;;4.73;4.33;;;;;;;14.37;64.88;98514.38;6978905;28;20206;-88
2023/04/29 05:24:11;;;;;;;5.67;4.80;;;;;;;14.86;64.42;98516.56;6978331;28;20284;-88
2023/04/29 05:27:33;;;;;;;6.80;5.03;;;;;;;14.73;64.42;98507.84;6979664;28;20225;-88
2023/04/29 05:30:54;;;;;;;6.97;4.97;;;;;;;14.25;64.26;98421.38;6979255;28;20728;-88
2023/04/29 05:34:16;;;;;;;4.37;4.07;;;;;;;15.10;64.50;98525.50;6979170;28;20729;-87
2023/04/29 05:37:39;;;;;;;5.23;4.73;;;;;;;15.27;64.65;98553.53;6975459;28;20245;-90
2023/04/29 05:41:01;;;;;;;7.17;4.90;;;;;;;15.09;64.80;98538.22;6982705;28;20203;-86
2023/04/29 05:44:22;;;;;;;5.90;5.40;;;;;;;15.06;65.19;98537.88;6977486;28;20234;-87
2023/04/29 05:47:44;;;;;;;8.50;6.43;;;;;;;15.45;65.16;98562.34;6978942;28;20226;-88
2023/04/29 05:51:06;;;;;;;6.40;5.80;;;;;;;15.88;63.87;98548.22;6978615;28;20226;-87
2023/04/29 05:54:28;;;;;;;6.07;4.80;;;;;;;16.07;63.51;98558.63;6977568;28;20235;-87
2023/04/29 05:57:50;;;;;;;5.00;4.60;;;;;;;16.02;63.24;98547.66;6977703;28;20211;-87
2023/04/29 06:01:12;;;;;;;7.53;5.80;;;;;;;15.75;64.21;98575.72;6977689;28;20291;-88
2023/04/29 06:04:33;;;;;;;6.80;6.10;;;;;;;15.92;65.86;98573.88;6977232;28;20738;-87
2023/04/29 06:07:55;;;;;;;6.67;6.07;;;;;;;16.05;65.30;98565.38;6976859;28;20280;-85
2023/04/29 06:11:17;;;;;;;6.37;5.73;;;;;;;16.09;65.72;98580.13;6983645;28;20605;-90
2023/04/29 06:14:51;;;;;;;6.67;6.13;;;;;;;16.51;65.61;98590.41;7003573;28;20249;-88
2023/04/29 06:18:12;;;;;;;5.40;4.90;;;;;;;16.31;65.74;98590.06;6978378;28;20215;-89
2023/04/29 06:21:34;;;;;;;6.63;6.00;;;;;;;16.90;64.83;98585.81;6970733;28;20205;-87
2023/04/29 06:24:55;;;;;;;7.53;6.23;;;;;;;16.64;65.83;98598.22;6973672;28;20369;-88
2023/04/29 06:28:19;;;;;;;5.73;5.23;;;;;;;17.20;64.76;98581.63;6975426;28;20686;-88
2023/04/29 06:31:41;;;;;;;6.03;5.40;;;;;;;17.76;63.46;98613.16;6975483;28;20207;-88
2023/04/29 06:35:02;;;;;;;6.57;4.90;;;;;;;17.72;62.79;98612.00;6948749;28;20235;-88
2023/04/29 06:38:24;;;;;;;5.63;5.13;;;;;;;17.83;63.51;98616.50;6949193;28;20202;-90
2023/04/29 06:41:46;;;;;;;5.10;4.70;;;;;;;17.64;62.45;98547.03;6957065;28;20202;-88
2023/04/29 06:45:09;;;;;;;5.53;4.93;;;;;;;18.09;62.80;98612.94;6975873;28;20229;-87
2023/04/29 06:48:31;;;;;;;6.10;5.07;;;;;;;18.02;62.40;98588.63;6976853;28;20685;-87
2023/04/29 06:51:52;;;;;;;5.10;4.60;;;;;;;18.57;61.76;98635.56;6976018;28;20218;-88
2023/04/29 06:55:14;;;;;;;5.37;4.87;;;;;;;18.13;61.88;98608.63;6964702;28;20233;-87
2023/04/29 06:58:36;;;;;;;6.00;4.73;;;;;;;17.92;62.51;98623.97;6948391;28;20303;-87
2023/04/29 07:01:58;;;;;;;4.80;4.40;;;;;;;18.54;61.11;98643.44;6948668;28;20300;-87
2023/04/29 07:05:20;;;;;;;4.97;3.50;;;;;;;18.48;59.59;98577.06;6948897;28;20325;-87
2023/04/29 07:08:41;;;;;;;5.27;4.07;;;;;;;18.00;59.38;98524.50;6950068;28;20230;-87
2023/04/29 07:12:03;;;;;;;3.87;3.43;;;;;;;18.58;58.30;98655.50;6948796;28;20290;-88
2023/04/29 07:15:25;;;;;;;3.47;3.17;;;;;;;18.70;58.64;98650.69;6974730;28;20223;-87
2023/04/29 07:18:48;;;;;;;3.60;3.30;;;;;;;18.86;58.30;98652.47;6976365;28;20221;-87
2023/04/29 07:22:10;;;;;;;4.23;3.10;;;;;;;18.95;57.75;98645.44;6976090;28;20293;-87
2023/04/29 07:25:31;;;;;;;4.00;3.60;;;;;;;18.87;57.40;98635.81;6976375;28;20283;-86
2023/04/29 07:28:53;;;;;;;3.77;3.20;;;;;;;18.88;58.91;98644.84;6973267;28;20206;-87
2023/04/29 07:32:15;;;;;;;3.10;2.90;;;;;;;19.75;56.68;98657.69;6947709;28;20687;-87
2023/04/29 07:35:40;;;;;;;4.13;2.70;;;;;;;20.53;54.17;98623.69;6948060;28;20309;-88
2023/04/29 07:39:14;;;;;;;3.33;3.03;;;;;;;20.65;52.03;98657.13;6947673;28;20659;-88
2023/04/29 07:42:35;;;;;;;3.27;2.97;;;;;;;20.35;53.16;98657.09;6948642;28;20195;-88
2023/04/29 07:45:57;;;;;;;3.37;3.07;;;;;;;20.49;52.98;98663.66;6948383;28;20318;-88
2023/04/29 07:49:18;;;;;;;4.27;3.30;;;;;;;20.42;54.16;98666.69;6952944;28;20874;-88
2023/04/29 07:52:41;;;;;;;3.77;3.47;;;;;;;20.09;54.45;98677.25;6974174;28;20734;-87
2023/04/29 07:56:05;;;;;;;3.50;3.20;;;;;;;20.17;53.24;98671.28;6975699;28;20325;-88
2023/04/29 07:59:27;;;;;;;3.13;2.90;;;;;;;20.07;52.80;98658.38;6975949;28;20288;-87
2023/04/29 08:02:51;;;;;;;4.17;2.93;;;;;;;20.15;53.72;98676.19;6974328;28;20234;-88
2023/04/29 08:06:12;;;;;;;3.57;3.30;;;;;;;19.95;53.67;98692.50;6976109;28;20604;-87
2023/04/29 08:09:35;;;;;;;3.47;3.17;;;;;;;19.94;54.18;98686.19;6977395;28;20202;-87
2023/04/29 08:12:57;;;;;;;4.27;3.47;;;;;;;19.86;54.53;98689.47;6980002;28;20699;-87
2023/04/29 08:16:18;;;;;;;3.17;2.80;;;;;;;19.75;53.32;98684.22;6980739;28;20714;-88
2023/04/29 08:19:49;;;;;;;5.53;3.70;;;;;;;19.79;52.21;98696.25;6978916;28;20200;-87
2023/04/29 08:23:10;;;;;;;3.10;2.80;;;;;;;19.83;52.79;98698.22;6981165;28;20335;-87
2023/04/29 08:26:33;;;;;;;3.00;2.80;;;;;;;19.87;53.00;98704.78;6981386;28;20714;-87
2023/04/29 08:29:55;;;;;;;4.10;2.57;;;;;;;19.92;52.60;98690.31;6981309;28;20264;-88
2023/04/29 08:33:17;;;;;;;3.13;2.93;;;;;;;20.10;52.64;98711.78;6986187;28;20229;-87
2023/04/29 08:36:38;;;;;;;3.30;3.10;;;;;;;19.64;52.81;98701.69;6981408;28;20319;-87
2023/04/29 08:40:00;;;;;;;2.83;2.63;;;;;;;19.23;54.39;98688.84;6963036;28;20293;-87
2023/04/29 08:43:23;;;;;;;3.30;3.10;;;;;;;18.51;54.01;98605.75;6952983;28;20214;-87
2023/04/29 08:46:45;;;;;;;3.10;2.83;;;;;;;19.43;53.18;98686.22;6952897;28;20223;-87
2023/04/29 08:50:09;;;;;;;2.90;2.70;;;;;;;19.94;53.23;98696.34;6965888;28;20205;-88
2023/04/29 08:53:30;;;;;;;3.23;3.03;;;;;;;19.80;52.22;98703.41;6979409;28;20660;-88
2023/04/29 08:56:52;;;;;;;4.80;3.50;;;;;;;20.05;53.15;98707.06;6953426;28;20727;-88
2023/04/29 09:00:15;;;;;;;2.97;2.77;;;;;;;20.08;52.40;98708.47;6952888;28;20774;-87
2023/04/29 09:03:43;;;;;;;3.50;3.20;;;;;;;19.91;52.59;98705.91;6952682;28;20696;-87
2023/04/29 09:07:05;;;;;;;4.13;3.23;;;;;;;19.70;53.23;98665.06;6967003;28;20293;-88
2023/04/29 09:10:27;;;;;;;3.90;2.97;;;;;;;19.93;51.07;98687.31;6987516;28;20217;-87
2023/04/29 09:13:48;;;;;;;3.00;2.77;;;;;;;20.01;51.25;98699.66;6981995;28;20317;-88
2023/04/29 09:17:11;;;;;;;2.80;2.60;;;;;;;19.95;50.49;98622.19;6980515;28;20206;-87
2023/04/29 09:20:39;;;;;;;3.33;3.00;;;;;;;20.14;50.96;98663.59;6977939;28;20696;-87
2023/04/29 09:24:02;;;;;;;4.03;2.77;;;;;;;20.46;50.32;98708.84;6979014;28;20824;-88
2023/04/29 09:27:28;;;;;;;3.47;2.67;;;;;;;21.24;49.34;98713.91;6979347;28;20228;-88
2023/04/29 09:30:49;;;;;;;3.20;2.90;;;;;;;21.34;48.42;98678.22;6978980;28;20206;-88
2023/04/29 09:34:13;;;;;;;3.67;3.20;;;;;;;21.42;48.71;98713.31;6978965;28;20226;-87
2023/04/29 09:37:35;;;;;;;7.83;2.83;;;;;;;21.49;48.06;98709.16;6979325;28;20252;-88
2023/04/29 09:40:56;;;;;;;2.90;2.60;;;;;;;21.27;47.23;98726.25;6978783;28;20205;-87
2023/04/29 09:44:19;;;;;;;3.10;2.90;;;;;;;20.58;49.80;98725.06;6962322;28;20359;-88
2023/04/29 09:47:40;;;;;;;3.07;2.67;;;;;;;21.09;47.81;98730.34;6951749;28;20208;-87
2023/04/29 09:51:03;;;;;;;3.23;2.87;;;;;;;21.08;47.46;98702.09;6951291;28;20289;-88
2023/04/29 09:54:27;;;;;;;3.00;2.70;;;;;;;21.50;46.75;98723.72;6951079;28;20248;-87
2023/04/29 09:57:48;;;;;;;5.93;2.70;;;;;;;20.94;49.25;98732.25;6951582;28;20219;-88
2023/04/29 10:01:12;;;;;;;3.37;2.70;;;;;;;21.61;47.04;98715.19;6951070;28;20297;-88
2023/04/29 10:04:35;;;;;;;2.90;2.70;;;;;;;21.41;47.19;98733.59;6950689;28;20998;-88
2023/04/29 10:07:58;;;;;;;2.77;2.50;;;;;;;21.23;46.74;98733.34;6971697;28;20213;-87
2023/04/29 10:11:20;;;;;;;2.87;2.67;;;;;;;21.92;46.42;98719.53;6978143;28;20210;-88
2023/04/29 10:14:45;;;;;;;3.07;2.77;;;;;;;21.70;45.75;98719.03;6977003;28;20687;-88
2023/04/29 10:18:30;;;;;;;3.67;3.10;;;;;;;22.18;45.12;98723.00;6949743;28;20211;-87
2023/04/29 10:21:54;;;;;;;2.90;2.70;;;;;;;21.36;47.30;98737.19;6954996;28;20209;-86
2023/04/29 10:25:18;;;;;;;2.70;2.50;;;;;;;21.68;44.17;98718.50;6975217;28;20320;-89
2023/04/29 10:28:48;;;;;;;2.87;2.50;;;;;;;21.75;43.82;98630.38;6976243;28;20196;-84
2023/04/29 10:32:11;;;;;;;2.67;2.47;;;;;;;21.97;44.25;98724.19;6950319;28;20186;-86
2023/04/29 10:35:33;;;;;;;2.67;2.47;;;;;;;21.85;45.21;98715.44;6950145;28;20244;-88
2023/04/29 10:38:58;;;;;;;2.90;2.70;;;;;;;22.83;43.55;98701.47;6950370;28;20204;-87
2023/04/29 10:42:28;;;;;;;2.90;2.43;;;;;;;22.60;44.06;98710.41;6951789;28;20197;-86
2023/04/29 10:45:50;;;;;;;2.63;2.43;;;;;;;23.00;43.86;98715.63;6952104;28;20323;-81
2023/04/29 10:49:11;;;;;;;2.80;2.60;;;;;;;23.11;43.06;98719.13;6968238;28;20344;-88
2023/04/29 10:52:54;;;;;;;3.20;2.70;;;;;;;22.75;42.55;98713.09;7005465;28;20343;-84
2023/04/29 10:56:16;;;;;;;2.80;2.60;;;;;;;22.12;44.31;98708.47;7005626;28;20322;-87
2023/04/29 10:59:48;;;;;;;2.97;2.77;;;;;;;21.84;44.76;98711.06;7005584;28;20677;-86
2023/04/29 11:03:47;;;;;;;4.00;2.90;;;;;;;21.94;44.32;98713.75;6993352;28;20202;-87
2023/04/29 11:07:08;;;;;;;2.80;2.60;;;;;;;22.70;42.35;98710.38;6978662;28;20588;-87
2023/04/29 11:10:36;;;;;;;3.80;2.67;;;;;;;21.94;43.40;98632.22;6978655;28;20239;-85
2023/04/29 11:13:57;;;;;;;3.33;3.10;;;;;;;21.98;43.77;98671.75;6978167;28;20246;-86
2023/04/29 11:17:22;;;;;;;2.90;2.60;;;;;;;22.72;43.51;98710.88;6974932;28;20295;-85
2023/04/29 11:21:13;;;;;;;2.97;2.60;;;;;;;22.99;42.94;98707.66;6983633;28;20211;-87
2023/04/29 11:24:36;;;;;;;3.50;2.80;;;;;;;22.15;43.42;98705.16;6978281;28;20225;-88
2023/04/29 11:28:00;;;;;;;2.90;2.70;;;;;;;;;;6975850;28;20211;-86
2023/04/29 11:31:27;;;;;;;5.20;2.73;;;;;;;22.53;43.98;98698.94;6976752;28;20224;-87
2023/04/29 11:34:50;;;;;;;3.23;2.70;;;;;;;22.15;43.35;98702.41;6976351;28;20291;-88
2023/04/29 11:38:11;;;;;;;4.93;2.90;;;;;;;20.35;45.76;98633.25;6977158;28;20302;-87
2023/04/29 11:41:34;;;;;;;3.70;2.80;;;;;;;20.75;44.89;98695.50;6976854;28;20232;-87
2023/04/29 11:44:58;;;;;;;2.50;2.20;;;;;;;21.38;43.86;98704.81;6981541;28;20245;-86
2023/04/29 11:48:19;;;;;;;2.67;2.47;;;;;;;21.66;43.06;98679.50;6982627;28;20215;-88
2023/04/29 11:51:42;;;;;;;4.10;3.10;;;;;;;20.60;46.96;98707.25;6981373;28;20673;-86
2023/04/29 11:55:05;;;;;;;4.03;3.70;;;;;;;20.03;46.98;98681.03;6982161;28;20760;-85
2023/04/29 11:58:26;;;;;;;5.57;4.00;;;;;;;20.56;46.65;98691.59;6981432;28;20277;-88
2023/04/29 12:01:48;;;;;;;4.03;3.63;;;;;;;21.36;44.02;98673.28;6984252;28;20222;-87
2023/04/29 12:05:11;;;;;;;6.10;3.43;;;;;;;21.52;43.65;98680.34;6979878;28;20284;-87
2023/04/29 12:08:34;;;;;;;3.90;3.60;;;;;;;22.30;42.67;98707.03;6984634;28;20236;-87
2023/04/29 12:11:56;;;;;;;8.70;4.40;;;;;;;22.22;42.57;98707.59;6980075;28;20227;-87
2023/04/29 12:15:17;;;;;;;4.40;3.93;;;;;;;21.86;42.52;98711.59;6980950;28;20273;-87
2023/04/29 12:18:39;;;;;;;4.50;4.10;;;;;;;21.67;44.54;98708.59;6981016;28;20289;-87
2023/04/29 12:22:00;;;;;;;4.60;4.20;;;;;;;21.63;43.58;98668.25;6981289;28;20214;-87
2023/04/29 12:25:27;;;;;;;4.37;4.00;;;;;;;21.93;42.77;98714.84;6981290;28;20251;-87
2023/04/29 12:28:48;;;;;;;6.97;4.53;;;;;;;21.92;44.85;98713.22;6981285;28;20200;-87
2023/04/29 12:32:18;;;;;;;4.60;4.20;;;;;;;22.04;43.02;98721.94;6980674;28;20321;-89
2023/04/29 12:35:39;;;;;;;4.90;4.00;;;;;;;21.80;42.81;98707.22;6989236;28;20598;-88
2023/04/29 12:39:01;;;;;;;5.43;5.03;;;;;;;21.33;44.26;98677.41;6958768;28;20306;-87
2023/04/29 12:42:24;;;;;;;6.27;5.67;;;;;;;21.64;41.98;98621.34;6976276;28;20211;-87
2023/04/29 12:45:46;;;;;;;5.33;4.87;;;;;;;21.73;42.83;98710.25;6983864;28;20710;-87
2023/04/29 12:49:08;;;;;;;6.37;4.90;;;;;;;21.36;44.12;98673.28;6966141;28;20222;-88
2023/04/29 12:52:29;;;;;;;7.23;4.57;;;;;;;20.92;44.02;98720.75;6980656;28;20689;-84
2023/04/29 12:55:51;;;;;;;5.93;4.50;;;;;;;21.86;43.68;98726.16;6973648;28;20274;-88
2023/04/29 12:59:14;;;;;;;4.53;4.13;;;;;;;22.05;42.82;98731.81;6980670;28;20663;-86
2023/04/29 13:02:35;;;;;;;5.20;4.70;;;;;;;21.87;43.02;98724.19;6980052;28;20297;-86
2023/04/29 13:05:58;;;;;;;5.40;4.73;;;;;;;22.12;42.45;98740.63;6979721;28;20272;-87
2023/04/29 13:09:19;;;;;;;7.13;4.30;;;;;;;22.03;42.27;98714.81;6980223;28;20348;-87
2023/04/29 13:12:41;;;;;;;6.20;5.63;;;;;;;22.33;43.75;98739.41;6978015;28;25364;-86
2023/04/29 13:16:04;;;;;;;5.77;5.17;;;;;;;21.80;42.93;98734.66;6961101;28;20232;-88
2023/04/29 13:19:26;;;;;;;5.87;5.37;;;;;;;21.80;43.54;98732.75;6978477;28;20204;-87
2023/04/29 13:22:47;;;;;;;5.70;5.10;;;;;;;22.38;42.79;98739.38;6986863;28;20254;-88
2023/04/29 13:26:09;;;;;;;5.50;5.00;;;;;;;21.44;43.58;98724.81;6979071;28;20309;-88
2023/04/29 13:29:31;;;;;;;5.77;5.23;;;;;;;21.95;42.47;98738.19;6978873;28;20205;-87
2023/04/29 13:32:54;;;;;;;6.43;5.50;;;;;;;21.85;42.25;98742.88;6976786;28;20206;-87
2023/04/29 13:36:16;;;;;;;6.70;5.17;;;;;;;20.90;44.37;98751.16;6997613;28;20230;-88
2023/04/29 13:39:38;;;;;;;5.77;5.17;;;;;;;22.07;42.09;98727.69;6984538;28;20199;-87
2023/04/29 13:43:02;;;;;;;6.20;5.70;;;;;;;22.69;41.04;98730.72;6976100;28;20199;-87
2023/04/29 13:46:24;;;;;;;6.30;5.67;;;;;;;21.50;42.24;98653.22;7000485;28;20227;-87
2023/04/29 13:49:46;;;;;;;7.10;6.40;;;;;;;21.56;42.69;98660.34;6979063;28;20291;-87
2023/04/29 13:53:08;;;;;;;7.07;6.37;;;;;;;22.53;41.39;98748.41;6977991;28;20294;-88
2023/04/29 13:56:29;;;;;;;6.27;5.70;;;;;;;21.82;43.47;98747.00;6978942;28;20319;-87
2023/04/29 13:59:51;;;;;;;6.47;5.20;;;;;;;22.38;42.17;98747.63;6978976;28;20339;-88
2023/04/29 14:03:13;;;;;;;6.30;5.70;;;;;;;23.02;40.46;98753.84;6979666;28;20227;-87
2023/04/29 14:06:36;;;;;;;6.53;5.93;;;;;;;22.68;41.37;98736.50;6978684;28;20758;-86
2023/04/29 14:09:58;;;;;;;7.33;6.63;;;;;;;22.88;41.42;98750.94;6982291;28;20234;-87
2023/04/29 14:13:19;;;;;;;7.10;6.40;;;;;;;22.47;42.20;98744.03;7006196;28;20205;-86
2023/04/29 14:16:41;;;;;;;7.00;6.20;;;;;;;22.40;41.45;98750.91;7005677;28;20314;-86
2023/04/29 14:20:02;;;;;;;7.03;6.43;;;;;;;21.73;42.03;98702.00;6982975;28;20208;-87
2023/04/29 14:23:25;;;;;;;8.37;6.03;;;;;;;22.17;41.64;98749.63;6978123;28;20200;-86
2023/04/29 14:26:47;;;;;;;7.90;6.70;;;;;;;22.43;41.07;98745.69;6978756;28;20227;-85
2023/04/29 14:30:09;;;;;;;8.57;6.13;;;;;;;22.14;41.34;98757.63;6977396;28;20285;-86
2023/04/29 14:33:31;;;;;;;7.47;5.30;;;;;;;21.12;42.59;98728.97;6977534;28;20650;-86
2023/04/29 14:36:52;;;;;;;7.00;6.40;;;;;;;21.48;41.91;98743.19;6985032;28;20540;-86
2023/04/29 14:40:15;;;;;;;6.20;5.60;;;;;;;21.84;42.14;98738.50;6975247;28;20289;-86
2023/04/29 14:43:37;;;;;;;6.97;6.30;;;;;;;21.79;41.68;98771.44;6977731;28;20200;-87
2023/04/29 14:46:59;;;;;;;7.60;5.73;;;;;;;21.94;41.60;98747.53;6978175;28;20204;-86
2023/04/29 14:50:24;;;;;;;6.90;6.20;;;;;;;22.01;40.93;98774.69;6977757;28;20211;-87
2023/04/29 14:53:45;;;;;;;6.37;5.77;;;;;;;21.66;41.72;98774.75;6977221;28;20650;-87
2023/04/29 14:57:08;;;;;;;7.70;6.33;;;;;;;21.25;42.72;98784.91;6977178;28;20264;-88
2023/04/29 15:00:29;;;;;;;7.13;6.43;;;;;;;20.53;43.52;98771.59;6977097;28;20222;-88
2023/04/29 15:03:51;;;;;;;6.13;5.53;;;;;;;20.54;42.32;98778.72;6955173;28;20251;-87
2023/04/29 15:07:18;;;;;;;11.47;6.53;;;;;;;20.55;42.75;98791.31;6955627;28;20299;-86
2023/04/29 15:10:39;;;;;;;8.27;5.23;;;;;;;20.21;43.58;98749.03;6986300;28;20685;-86
2023/04/29 15:14:02;;;;;;;6.77;6.07;;;;;;;21.19;42.79;98796.97;6971243;28;20289;-87
2023/04/29 15:17:24;;;;;;;7.37;6.67;;;;;;;21.25;43.03;98795.06;6977293;28;20269;-87
2023/04/29 15:20:45;;;;;;;7.13;5.87;;;;;;;20.48;44.50;98807.19;6977457;28;20205;-87
2023/04/29 15:24:08;;;;;;;7.77;6.97;;;;;;;20.68;43.61;98764.25;6977329;28;20314;-87
2023/04/29 15:27:29;;;;;;;9.80;6.40;;;;;;;20.98;43.17;98797.22;6978243;28;20234;-86
2023/04/29 15:30:52;;;;;;;8.40;6.60;;;;;;;21.02;43.20;98800.25;6978892;28;20223;-86
2023/04/29 15:34:14;;;;;;;7.50;6.80;;;;;;;21.48;42.79;98816.47;6978058;28;20284;-86
2023/04/29 15:37:35;;;;;;;9.93;7.53;;;;;;;21.50;42.17;98823.31;6977354;28;20295;-87
2023/04/29 15:40:59;;;;;;;9.10;7.23;;;;;;;21.70;41.82;98822.50;6977978;28;20210;-88
2023/04/29 15:44:21;;;;;;;7.57;6.87;;;;;;;20.92;43.24;98805.72;6968701;28;20224;-88
2023/04/29 15:47:44;;;;;;;8.53;7.07;;;;;;;20.25;44.93;98833.13;6976685;28;20244;-88
2023/04/29 15:51:06;;;;;;;9.17;7.10;;;;;;;20.59;45.23;98812.47;6977902;28;20207;-88
2023/04/29 15:54:28;;;;;;;10.50;8.13;;;;;;;21.00;44.78;98816.97;6986490;28;20279;-87
2023/04/29 15:57:50;;;;;;;10.27;8.30;;;;;;;20.81;44.62;98815.78;6998761;28;20228;-88